createdAt,value
2023-02-13T00:02:02.167Z,102888.13
2023-02-13T00:04:47.539Z,102885.91
2023-02-13T00:07:33.187Z,102878.22
2023-02-13T00:10:18.780Z,102879.81
2023-02-13T00:13:04.303Z,102880.63
2023-02-13T00:15:58.992Z,102881.44
2023-02-13T00:18:44.330Z,102878.13
2023-02-13T00:21:29.611Z,102877.84
2023-02-13T00:24:15.475Z,102875.19
2023-02-13T00:27:01.068Z,102874.31
2023-02-13T00:29:47.055Z,102875.19
2023-02-13T00:32:32.412Z,102870.09
2023-02-13T00:35:17.884Z,102874.31
2023-02-13T00:38:03.180Z,102873.06
2023-02-13T00:40:48.461Z,102871.06
2023-02-13T00:43:34.332Z,102866.63
2023-02-13T00:46:19.758Z,102876.91
2023-02-13T00:49:05.729Z,102877.38
2023-02-13T00:51:52.946Z,102868.53
2023-02-13T00:54:40.739Z,102859.88
2023-02-13T00:57:26.035Z,102868.69
2023-02-13T01:00:12.086Z,102885.84
2023-02-13T01:02:59.947Z,102882.03
2023-02-13T01:05:45.987Z,102881.78
2023-02-13T01:08:31.706Z,102878.31
2023-02-13T01:11:19.127Z,102883.50
2023-02-13T01:14:04.755Z,102883.56
2023-02-13T01:16:50.240Z,102879.81
2023-02-13T01:19:35.549Z,102881.09
2023-02-13T01:22:20.811Z,102889.53
2023-02-13T01:25:08.189Z,102883.19
2023-02-13T01:27:53.581Z,102882.09
2023-02-13T01:30:39.581Z,102881.69
2023-02-13T01:33:27.365Z,102868.16
2023-02-13T01:36:14.444Z,102864.41
2023-02-13T01:39:00.174Z,102863.53
2023-02-13T01:41:45.827Z,102872.88
2023-02-13T01:44:51.868Z,102868.16
2023-02-13T01:47:47.625Z,102874.78
2023-02-13T01:51:02.165Z,102862.06
2023-02-13T01:53:53.783Z,102862.66
2023-02-13T01:56:53.877Z,102867.75
2023-02-13T01:59:50.079Z,102865.00
2023-02-13T02:02:41.790Z,102860.63
2023-02-13T02:05:29.209Z,102858.91
2023-02-13T02:08:15.708Z,102852.69
2023-02-13T02:11:09.163Z,102849.47
2023-02-13T02:13:54.519Z,102848.03
2023-02-13T02:16:49.560Z,102853.53
2023-02-13T02:19:41.760Z,102843.22
2023-02-13T02:22:44.913Z,102854.72
2023-02-13T02:26:04.683Z,102856.50
2023-02-13T02:29:32.252Z,102849.56
2023-02-13T02:32:30.355Z,102839.94
2023-02-13T02:35:34.600Z,102835.41
2023-02-13T02:38:48.078Z,102836.28
2023-02-13T02:41:51.364Z,102827.63
2023-02-13T02:45:09.628Z,102828.00
2023-02-13T02:48:52.306Z,102829.16
2023-02-13T02:52:05.849Z,102818.13
2023-02-13T02:55:09.171Z,102824.53
2023-02-13T02:58:38.529Z,102825.16
2023-02-13T03:01:46.494Z,102817.47
2023-02-13T03:05:02.900Z,102817.03
2023-02-13T03:07:49.583Z,102806.53
2023-02-13T03:10:56.883Z,102805.44
2023-02-13T03:13:48.103Z,102810.88
2023-02-13T03:16:52.257Z,102817.13
2023-02-13T03:20:11.457Z,102810.97
2023-02-13T03:23:08.932Z,102807.59
2023-02-13T03:26:06.733Z,102813.22
2023-02-13T03:29:21.819Z,102800.75
2023-02-13T03:32:29.191Z,102803.06
2023-02-13T03:36:08.627Z,102810.91
2023-02-13T03:39:24.062Z,102805.72
2023-02-13T03:42:35.701Z,102812.50
2023-02-13T03:45:53.002Z,102804.66
2023-02-13T03:49:00.656Z,102808.66
2023-02-13T03:51:51.883Z,102814.38
2023-02-13T03:55:02.902Z,102814.38
2023-02-13T03:58:10.768Z,102807.94
2023-02-13T04:01:01.073Z,102804.53
2023-02-13T04:04:01.508Z,102804.06
2023-02-13T04:06:58.174Z,102796.53
2023-02-13T04:09:43.725Z,102798.28
2023-02-13T04:12:37.895Z,102800.06
2023-02-13T04:15:30.367Z,102799.72
2023-02-13T04:18:31.396Z,102797.16
2023-02-13T04:21:16.688Z,102795.44
2023-02-13T04:24:02.114Z,102797.72
2023-02-13T04:26:47.476Z,102801.22
2023-02-13T04:29:32.993Z,102798.53
2023-02-13T04:32:18.788Z,102791.50
2023-02-13T04:35:04.452Z,102787.84
2023-02-13T04:37:50.398Z,102785.00
2023-02-13T04:40:36.037Z,102786.34
2023-02-13T04:43:22.072Z,102786.44
2023-02-13T04:46:07.837Z,102782.88
2023-02-13T04:48:53.093Z,102779.97
2023-02-13T04:51:38.575Z,102776.56
2023-02-13T04:54:23.803Z,102788.31
2023-02-13T04:57:09.123Z,102787.13
2023-02-13T04:59:54.721Z,102782.38
2023-02-13T05:02:40.104Z,102786.84
2023-02-13T05:05:25.681Z,102795.13
2023-02-13T05:08:11.031Z,102796.16
2023-02-13T05:10:56.789Z,102798.44
2023-02-13T05:13:42.204Z,102793.97
2023-02-13T05:16:27.604Z,102798.34
2023-02-13T05:19:13.250Z,102789.44
2023-02-13T05:22:17.229Z,102790.22
2023-02-13T05:25:02.818Z,102790.59
2023-02-13T05:27:48.348Z,102791.13
2023-02-13T05:30:33.674Z,102782.13
2023-02-13T05:33:19.085Z,102783.41
2023-02-13T05:36:04.945Z,102791.59
2023-02-13T05:38:50.117Z,102782.31
2023-02-13T05:41:35.588Z,102772.94
2023-02-13T05:44:20.861Z,102768.66
2023-02-13T05:47:06.434Z,102761.53
2023-02-13T05:49:52.154Z,102763.88
2023-02-13T05:52:37.433Z,102750.16
2023-02-13T05:55:22.894Z,102747.66
2023-02-13T05:58:09.659Z,102751.28
2023-02-13T06:01:00.796Z,102741.66
2023-02-13T06:03:46.597Z,102753.53
2023-02-13T06:06:32.058Z,102747.41
2023-02-13T06:09:17.487Z,102749.63
2023-02-13T06:12:03.051Z,102732.91
2023-02-13T06:14:48.449Z,102741.44
2023-02-13T06:17:33.695Z,102743.03
2023-02-13T06:20:19.361Z,102729.66
2023-02-13T06:23:05.060Z,102737.78
2023-02-13T06:25:50.618Z,102731.44
2023-02-13T06:28:36.940Z,102729.41
2023-02-13T06:31:22.934Z,102736.28
2023-02-13T06:34:08.612Z,102746.94
2023-02-13T06:36:54.025Z,102739.03
2023-02-13T06:39:39.488Z,102736.53
2023-02-13T06:42:24.963Z,102730.03
2023-02-13T06:45:13.639Z,102718.69
2023-02-13T06:47:59.264Z,102718.16
2023-02-13T06:50:44.564Z,102723.00
2023-02-13T06:53:30.402Z,102726.09
2023-02-13T06:56:15.678Z,102727.59
2023-02-13T06:59:01.163Z,102736.88
2023-02-13T07:01:47.057Z,102726.72
2023-02-13T07:04:32.430Z,102739.13
2023-02-13T07:07:17.788Z,102735.94
2023-02-13T07:10:04.454Z,102731.91
2023-02-13T07:13:00.274Z,102731.88
2023-02-13T07:15:50.577Z,102739.75
2023-02-13T07:18:37.589Z,102744.78
2023-02-13T07:21:23.752Z,102733.03
2023-02-13T07:24:10.578Z,102738.72
2023-02-13T07:26:55.891Z,102738.16
2023-02-13T07:29:41.294Z,102739.88
2023-02-13T07:32:26.582Z,102729.03
2023-02-13T07:35:12.454Z,102727.69
2023-02-13T07:37:57.935Z,102732.16
2023-02-13T07:40:43.534Z,102724.22
2023-02-13T07:43:29.833Z,102743.66
2023-02-13T07:46:15.477Z,102740.06
2023-02-13T07:49:01.280Z,102739.72
2023-02-13T07:51:47.173Z,102739.22
2023-02-13T07:54:32.702Z,102737.88
2023-02-13T07:57:18.419Z,102738.66
2023-02-13T08:00:04.075Z,102740.81
2023-02-13T08:03:01.297Z,102732.09
2023-02-13T08:05:49.392Z,102733.16
2023-02-13T08:08:35.822Z,102736.16
2023-02-13T08:11:50.206Z,102739.78
2023-02-13T08:14:35.847Z,102745.66
2023-02-13T08:17:21.362Z,102751.50
2023-02-13T08:20:09.221Z,102759.91
2023-02-13T08:22:54.813Z,102750.19
2023-02-13T08:25:40.700Z,102757.81
2023-02-13T08:28:26.016Z,102764.94
2023-02-13T08:31:13.062Z,102766.09
2023-02-13T08:33:58.540Z,102765.47
2023-02-13T08:36:44.333Z,102768.09
2023-02-13T08:39:29.976Z,102767.66
2023-02-13T08:42:16.322Z,102764.47
2023-02-13T08:45:01.872Z,102756.72
2023-02-13T08:47:47.385Z,102754.41
2023-02-13T08:50:32.647Z,102761.44
2023-02-13T08:53:18.021Z,102770.81
2023-02-13T08:56:04.218Z,102768.84
2023-02-13T08:58:50.359Z,102770.47
2023-02-13T09:01:36.129Z,102770.09
2023-02-13T09:04:21.732Z,102776.25
2023-02-13T09:07:07.108Z,102777.59
2023-02-13T09:09:52.385Z,102774.53
2023-02-13T09:12:38.039Z,102778.88
2023-02-13T09:15:23.879Z,102781.00
2023-02-13T09:18:09.471Z,102777.97
2023-02-13T09:21:03.769Z,102784.16
2023-02-13T09:23:51.582Z,102778.22
2023-02-13T09:26:37.529Z,102765.63
2023-02-13T09:29:22.974Z,102757.22
2023-02-13T09:32:08.794Z,102758.44
2023-02-13T09:34:54.311Z,102746.81
2023-02-13T09:37:39.904Z,102738.97
2023-02-13T09:40:35.686Z,102738.47
2023-02-13T09:43:41.510Z,102739.78
2023-02-13T09:46:39.072Z,102732.16
2023-02-13T09:49:28.236Z,102730.69
2023-02-13T09:52:13.620Z,102731.91
2023-02-13T09:54:59.182Z,102724.34
2023-02-13T09:57:55.316Z,102728.53
2023-02-13T10:00:44.764Z,102728.94
2023-02-13T10:03:38.158Z,102730.31
2023-02-13T10:06:49.942Z,102728.13
2023-02-13T10:09:51.374Z,102731.00
2023-02-13T10:12:52.956Z,102733.69
2023-02-13T10:15:49.699Z,102725.09
2023-02-13T10:18:42.389Z,102720.00
2023-02-13T10:21:36.435Z,102720.00
2023-02-13T10:24:40.557Z,102717.47
2023-02-13T10:27:32.739Z,102709.81
2023-02-13T10:30:26.653Z,102713.16
2023-02-13T10:33:21.261Z,102712.38
2023-02-13T10:36:09.518Z,102722.97
2023-02-13T10:39:13.005Z,102724.97
2023-02-13T10:42:04.614Z,102721.78
2023-02-13T10:45:06.891Z,102727.41
2023-02-13T10:48:11.240Z,102720.88
2023-02-13T10:51:19.516Z,102715.22
2023-02-13T10:54:25.397Z,102718.19
2023-02-13T10:57:36.559Z,102722.84
2023-02-13T11:00:48.682Z,102703.25
2023-02-13T11:03:34.158Z,102701.84
2023-02-13T11:06:20.375Z,102703.75
2023-02-13T11:09:09.809Z,102695.19
2023-02-13T11:11:55.562Z,102692.81
2023-02-13T11:14:58.132Z,102693.97
2023-02-13T11:17:44.601Z,102703.25
2023-02-13T11:20:44.560Z,102700.91
2023-02-13T11:23:30.710Z,102701.94
2023-02-13T11:26:28.136Z,102695.78
2023-02-13T11:29:22.575Z,102688.66
2023-02-13T11:32:14.234Z,102684.19
2023-02-13T11:35:26.314Z,102691.22
2023-02-13T11:38:18.180Z,102688.59
2023-02-13T11:41:11.657Z,102680.75
2023-02-13T11:44:04.400Z,102670.97
2023-02-13T11:46:52.341Z,102663.44
2023-02-13T11:49:39.636Z,102665.50
2023-02-13T11:52:29.790Z,102656.91
2023-02-13T11:55:29.568Z,102654.16
2023-02-13T11:58:14.832Z,102652.31
2023-02-13T12:01:21.461Z,102641.59
2023-02-13T12:04:27.820Z,102631.81
2023-02-13T12:07:21.166Z,102635.31
2023-02-13T12:10:19.240Z,102634.50
2023-02-13T12:13:30.065Z,102623.28
2023-02-13T12:16:28.952Z,102618.94
2023-02-13T12:19:22.195Z,102618.06
2023-02-13T12:22:07.783Z,102622.59
2023-02-13T12:25:02.330Z,102626.41
2023-02-13T12:28:12.811Z,102620.47
2023-02-13T12:31:33.764Z,102617.41
2023-02-13T12:34:30.920Z,102609.88
2023-02-13T12:37:19.504Z,102604.16
2023-02-13T12:40:24.733Z,102597.34
2023-02-13T12:43:10.188Z,102592.53
2023-02-13T12:46:01.771Z,102588.28
2023-02-13T12:49:17.790Z,102570.03
2023-02-13T12:52:47.217Z,102565.81
2023-02-13T12:56:09.023Z,102563.34
2023-02-13T12:59:07.208Z,102561.56
2023-02-13T13:02:13.817Z,102569.28
2023-02-13T13:05:45.274Z,102554.00
2023-02-13T13:08:44.516Z,102543.91
2023-02-13T13:11:48.202Z,102553.09
2023-02-13T13:14:54.243Z,102541.25
2023-02-13T13:18:04.640Z,102537.91
2023-02-13T13:21:02.253Z,102536.44
2023-02-13T13:24:15.738Z,102536.34
2023-02-13T13:27:03.494Z,102531.69
2023-02-13T13:29:56.187Z,102535.00
2023-02-13T13:32:44.082Z,102525.59
2023-02-13T13:35:31.586Z,102523.22
2023-02-13T13:38:46.434Z,102518.44
2023-02-13T13:41:44.923Z,102524.88
2023-02-13T13:44:36.740Z,102508.47
2023-02-13T13:47:26.692Z,102506.97
2023-02-13T13:50:33.537Z,102502.81
2023-02-13T13:53:23.398Z,102501.72
2023-02-13T13:56:09.564Z,102503.34
2023-02-13T13:58:56.750Z,102495.56
2023-02-13T14:01:42.364Z,102506.69
2023-02-13T14:04:34.532Z,102508.81
2023-02-13T14:07:24.628Z,102504.25
2023-02-13T14:10:23.624Z,102506.03
2023-02-13T14:13:09.052Z,102494.06
2023-02-13T14:15:55.225Z,102486.34
2023-02-13T14:18:46.829Z,102483.91
2023-02-13T14:21:32.516Z,102482.34
2023-02-13T14:24:20.586Z,102479.84
2023-02-13T14:27:06.451Z,102473.06
2023-02-13T14:29:52.162Z,102470.22
2023-02-13T14:32:41.147Z,102475.75
2023-02-13T14:35:31.232Z,102466.56
2023-02-13T14:38:25.664Z,102470.75
2023-02-13T14:41:43.117Z,102467.22
2023-02-13T14:44:49.524Z,102455.53
2023-02-13T14:47:42.994Z,102466.38
2023-02-13T14:50:32.810Z,102455.28
2023-02-13T14:53:25.317Z,102462.06
2023-02-13T14:56:18.975Z,102456.78
2023-02-13T14:59:17.890Z,102467.66
2023-02-13T15:02:17.459Z,102463.44
2023-02-13T15:05:16.075Z,102449.69
2023-02-13T15:08:21.174Z,102439.31
2023-02-13T15:11:26.566Z,102440.31
2023-02-13T15:14:36.938Z,102441.44
2023-02-13T15:17:40.120Z,102433.66
2023-02-13T15:20:30.406Z,102432.03
2023-02-13T15:23:28.815Z,102434.50
2023-02-13T15:26:22.770Z,102425.59
2023-02-13T15:29:35.287Z,102429.69
2023-02-13T15:32:38.903Z,102425.81
2023-02-13T15:35:31.201Z,102431.53
2023-02-13T15:38:28.892Z,102435.53
2023-02-13T15:41:24.799Z,102440.47
2023-02-13T15:44:18.945Z,102432.25
2023-02-13T15:47:10.135Z,102432.53
2023-02-13T15:49:55.893Z,102432.09
2023-02-13T15:52:42.377Z,102423.84
2023-02-13T15:55:30.626Z,102429.53
2023-02-13T15:58:16.382Z,102430.16
2023-02-13T16:01:07.009Z,102429.72
2023-02-13T16:04:08.845Z,102430.28
2023-02-13T16:06:56.060Z,102435.28
2023-02-13T16:09:42.011Z,102426.50
2023-02-13T16:12:28.956Z,102422.88
2023-02-13T16:15:21.495Z,102421.81
2023-02-13T16:18:20.085Z,102438.06
2023-02-13T16:21:07.979Z,102433.56
2023-02-13T16:24:16.300Z,102441.94
2023-02-13T16:27:01.610Z,102445.31
2023-02-13T16:29:58.856Z,102441.03
2023-02-13T16:32:44.422Z,102443.78
2023-02-13T16:35:35.747Z,102442.81
2023-02-13T16:38:38.524Z,102435.59
2023-02-13T16:41:23.611Z,102444.53
2023-02-13T16:44:23.204Z,102446.53
2023-02-13T16:47:22.393Z,102455.53
2023-02-13T16:50:16.643Z,102455.94
2023-02-13T16:53:04.261Z,102446.84
2023-02-13T16:55:59.489Z,102453.47
2023-02-13T16:58:44.976Z,102453.00
2023-02-13T17:01:30.692Z,102454.28
2023-02-13T17:04:25.133Z,102451.22
2023-02-13T17:07:16.830Z,102449.94
2023-02-13T17:10:17.436Z,102448.59
2023-02-13T17:13:17.805Z,102443.66
2023-02-13T17:16:03.355Z,102445.78
2023-02-13T17:18:48.636Z,102457.56
2023-02-13T17:21:34.621Z,102454.66
2023-02-13T17:24:19.886Z,102455.09
2023-02-13T17:27:05.430Z,102467.59
2023-02-13T17:29:50.667Z,102462.97
2023-02-13T17:32:36.991Z,102465.94
2023-02-13T17:35:22.685Z,102464.47
2023-02-13T17:38:10.155Z,102471.16
2023-02-13T17:40:55.552Z,102478.59
2023-02-13T17:43:41.306Z,102473.84
2023-02-13T17:46:27.032Z,102481.31
2023-02-13T17:49:12.749Z,102482.31
2023-02-13T17:51:58.335Z,102483.38
2023-02-13T17:54:44.431Z,102487.47
2023-02-13T17:57:30.094Z,102488.28
2023-02-13T18:00:16.092Z,102493.41
2023-02-13T18:03:01.940Z,102498.94
2023-02-13T18:05:49.284Z,102509.72
2023-02-13T18:08:34.870Z,102504.00
2023-02-13T18:11:20.207Z,102505.38
2023-02-13T18:14:05.403Z,102507.25
2023-02-13T18:16:50.769Z,102506.59
2023-02-13T18:19:37.508Z,102504.22
2023-02-13T18:22:23.045Z,102496.47
2023-02-13T18:25:09.811Z,102498.47
2023-02-13T18:27:55.484Z,102501.22
2023-02-13T18:30:44.290Z,102505.66
2023-02-13T18:33:30.095Z,102503.44
2023-02-13T18:36:15.523Z,102493.59
2023-02-13T18:39:00.810Z,102501.63
2023-02-13T18:41:46.320Z,102493.16
2023-02-13T18:44:32.552Z,102493.50
2023-02-13T18:47:18.322Z,102499.63
2023-02-13T18:50:04.919Z,102495.69
2023-02-13T18:52:50.344Z,102493.44
2023-02-13T18:55:36.141Z,102493.94
2023-02-13T18:58:21.694Z,102492.53
2023-02-13T19:01:18.211Z,102499.06
2023-02-13T19:04:04.960Z,102505.03
2023-02-13T19:06:50.680Z,102509.31
2023-02-13T19:09:40.439Z,102513.78
2023-02-13T19:12:26.382Z,102516.28
2023-02-13T19:15:12.073Z,102513.38
2023-02-13T19:17:57.587Z,102523.69
2023-02-13T19:20:44.003Z,102517.47
2023-02-13T19:23:29.528Z,102525.22
2023-02-13T19:26:18.231Z,102527.56
2023-02-13T19:29:04.414Z,102523.66
2023-02-13T19:31:49.742Z,102526.31
2023-02-13T19:34:35.012Z,102528.91
2023-02-13T19:37:20.312Z,102522.44
2023-02-13T19:40:06.421Z,102526.28
2023-02-13T19:42:51.742Z,102521.59
2023-02-13T19:45:36.959Z,102524.00
2023-02-13T19:48:22.275Z,102518.84
2023-02-13T19:51:08.501Z,102520.22
2023-02-13T19:54:05.594Z,102523.50
2023-02-13T19:56:51.186Z,102523.59
2023-02-13T19:59:36.624Z,102526.44
2023-02-13T20:02:22.494Z,102525.88
2023-02-13T20:05:09.045Z,102524.31
2023-02-13T20:07:54.624Z,102525.50
2023-02-13T20:10:45.015Z,102524.72
2023-02-13T20:13:32.097Z,102527.38
2023-02-13T20:16:18.619Z,102521.03
2023-02-13T20:19:11.559Z,102523.00
2023-02-13T20:21:57.103Z,102518.31
2023-02-13T20:24:43.498Z,102519.56
2023-02-13T20:27:29.079Z,102506.19
2023-02-13T20:30:15.926Z,102507.94
2023-02-13T20:33:01.136Z,102507.78
2023-02-13T20:35:46.681Z,102508.56
2023-02-13T20:38:32.235Z,102502.75
2023-02-13T20:41:19.844Z,102491.81
2023-02-13T20:44:12.282Z,102492.94
2023-02-13T20:46:58.395Z,102481.72
2023-02-13T20:49:44.958Z,102479.88
2023-02-13T20:52:30.599Z,102489.13
2023-02-13T20:55:15.984Z,102483.09
2023-02-13T20:58:01.645Z,102482.38
2023-02-13T21:00:47.128Z,102473.25
2023-02-13T21:03:32.836Z,102472.91
2023-02-13T21:06:18.315Z,102465.31
2023-02-13T21:09:05.383Z,102470.84
2023-02-13T21:11:51.054Z,102464.69
2023-02-13T21:14:36.554Z,102453.97
2023-02-13T21:17:22.123Z,102458.88
2023-02-13T21:20:08.155Z,102460.16
2023-02-13T21:22:54.568Z,102461.88
2023-02-13T21:25:40.129Z,102458.47
2023-02-13T21:28:25.421Z,102456.38
2023-02-13T21:31:14.797Z,102447.09
2023-02-13T21:34:03.265Z,102442.19
2023-02-13T21:36:49.031Z,102445.38
2023-02-13T21:39:36.364Z,102440.28
2023-02-13T21:42:21.589Z,102430.91
2023-02-13T21:45:07.373Z,102422.06
2023-02-13T21:47:56.632Z,102423.31
2023-02-13T21:50:42.089Z,102422.38
2023-02-13T21:53:27.434Z,102411.28
2023-02-13T21:56:16.031Z,102421.16
2023-02-13T21:59:01.559Z,102398.13
2023-02-13T22:02:02.898Z,102387.72
2023-02-13T22:04:48.208Z,102376.97
2023-02-13T22:07:53.690Z,102370.31
2023-02-13T22:10:39.472Z,102392.44
2023-02-13T22:13:25.880Z,102409.44
2023-02-13T22:16:13.524Z,102409.44
2023-02-13T22:18:59.888Z,102407.81
2023-02-13T22:21:45.446Z,102416.09
2023-02-13T22:24:30.989Z,102402.84
2023-02-13T22:27:16.429Z,102414.03
2023-02-13T22:30:02.060Z,102414.66
2023-02-13T22:32:47.837Z,102414.28
2023-02-13T22:35:38.007Z,102401.22
2023-02-13T22:38:23.528Z,102400.94
2023-02-13T22:41:11.823Z,102395.03
2023-02-13T22:43:57.696Z,102398.19
2023-02-13T22:46:45.357Z,102398.84
2023-02-13T22:49:30.586Z,102405.16
2023-02-13T22:52:16.193Z,102397.72
2023-02-13T22:55:01.876Z,102398.31
2023-02-13T22:57:48.518Z,102412.56
2023-02-13T23:00:33.859Z,102426.16
2023-02-13T23:03:19.787Z,102407.97
2023-02-13T23:06:07.194Z,102388.59
2023-02-13T23:08:53.864Z,102405.47
2023-02-13T23:11:57.915Z,102412.72
2023-02-13T23:14:52.143Z,102422.41
2023-02-13T23:17:56.684Z,102415.34
2023-02-13T23:20:43.970Z,102406.28
2023-02-13T23:23:29.623Z,102390.06
2023-02-13T23:26:15.802Z,102418.38
2023-02-13T23:29:01.176Z,102407.72
2023-02-13T23:31:46.664Z,102405.72
2023-02-13T23:34:35.139Z,102384.09
2023-02-13T23:37:20.802Z,102400.47
2023-02-13T23:40:07.201Z,102392.94
2023-02-13T23:42:52.390Z,102383.19
2023-02-13T23:45:38.396Z,102405.78
2023-02-13T23:48:24.048Z,102402.66
2023-02-13T23:51:09.783Z,102412.22
2023-02-13T23:53:57.385Z,102406.25
2023-02-13T23:56:43.779Z,102406.13
2023-02-13T23:59:29.401Z,102403.03
